createdAt,value
2022-08-27T00:00:45.679Z,18.50
2022-08-27T00:03:12.945Z,18.40
2022-08-27T00:05:40.742Z,18.30
2022-08-27T00:08:08.513Z,18.30
2022-08-27T00:10:35.677Z,18.40
2022-08-27T00:13:02.807Z,18.40
2022-08-27T00:15:30.038Z,18.40
2022-08-27T00:17:57.293Z,18.40
2022-08-27T00:20:26.143Z,18.40
2022-08-27T00:22:53.616Z,18.50
2022-08-27T00:25:21.248Z,18.40
2022-08-27T00:27:48.975Z,18.20
2022-08-27T00:30:17.284Z,18.20
2022-08-27T00:32:44.679Z,18.20
2022-08-27T00:35:12.087Z,18.20
2022-08-27T00:37:39.239Z,18.10
2022-08-27T00:40:08.191Z,18.10
2022-08-27T00:42:35.291Z,18.10
2022-08-27T00:45:02.545Z,18.00
2022-08-27T00:47:30.784Z,18.10
2022-08-27T00:50:01.806Z,18.00
2022-08-27T00:52:53.978Z,18.00
2022-08-27T00:55:30.277Z,18.00
2022-08-27T00:58:05.814Z,18.00
2022-08-27T01:00:33.304Z,18.10
2022-08-27T01:03:00.644Z,18.10
2022-08-27T01:05:28.129Z,18.10
2022-08-27T01:07:59.851Z,18.20
2022-08-27T01:10:27.441Z,18.20
2022-08-27T01:12:54.823Z,18.30
2022-08-27T01:15:24.324Z,18.40
2022-08-27T01:17:51.588Z,18.50
2022-08-27T01:20:21.617Z,18.40
2022-08-27T01:23:10.056Z,18.40
2022-08-27T01:25:37.798Z,18.40
2022-08-27T01:28:05.165Z,18.30
2022-08-27T01:30:32.315Z,18.40
2022-08-27T01:32:59.720Z,18.50
2022-08-27T01:35:26.796Z,18.50
2022-08-27T01:37:54.504Z,18.40
2022-08-27T01:40:24.504Z,18.40
2022-08-27T01:42:53.648Z,18.40
2022-08-27T01:45:29.549Z,18.50
2022-08-27T01:47:57.039Z,18.50
2022-08-27T01:50:28.894Z,18.50
2022-08-27T01:52:56.380Z,18.50
2022-08-27T01:55:25.870Z,18.50
2022-08-27T01:57:54.398Z,18.40
2022-08-27T02:00:27.286Z,18.50
2022-08-27T02:02:55.152Z,18.30
2022-08-27T02:05:22.947Z,18.10
2022-08-27T02:07:50.429Z,18.20
2022-08-27T02:10:20.328Z,18.30
2022-08-27T02:12:47.470Z,18.40
2022-08-27T02:15:15.099Z,18.40
2022-08-27T02:17:42.369Z,18.40
2022-08-27T02:20:11.194Z,18.30
2022-08-27T02:22:38.741Z,18.20
2022-08-27T02:25:07.276Z,18.20
2022-08-27T02:27:37.721Z,18.20
2022-08-27T02:30:05.835Z,18.30
2022-08-27T02:32:33.157Z,18.00
2022-08-27T02:35:00.767Z,18.10
2022-08-27T02:37:28.665Z,18.00
2022-08-27T02:39:55.922Z,18.20
2022-08-27T02:42:23.230Z,18.30
2022-08-27T02:44:50.478Z,18.20
2022-08-27T02:47:17.728Z,18.30
2022-08-27T02:49:44.754Z,18.20
2022-08-27T02:52:12.508Z,18.20
2022-08-27T02:54:40.801Z,18.20
2022-08-27T02:57:08.190Z,18.20
2022-08-27T02:59:35.932Z,18.20
2022-08-27T03:02:03.294Z,18.20
2022-08-27T03:04:30.549Z,18.10
2022-08-27T03:06:58.048Z,18.10
2022-08-27T03:09:25.255Z,18.10
2022-08-27T03:11:52.617Z,18.10
2022-08-27T03:14:19.727Z,18.20
2022-08-27T03:16:47.073Z,18.20
2022-08-27T03:19:18.614Z,18.10
2022-08-27T03:21:52.128Z,18.00
2022-08-27T03:24:22.103Z,17.90
2022-08-27T03:26:52.694Z,17.80
2022-08-27T03:29:21.038Z,17.60
2022-08-27T03:31:48.513Z,17.70
2022-08-27T03:34:19.600Z,17.70
2022-08-27T03:36:49.239Z,17.80
2022-08-27T03:39:16.435Z,17.90
2022-08-27T03:41:54.968Z,17.80
2022-08-27T03:44:24.254Z,17.70
2022-08-27T03:46:53.204Z,17.80
2022-08-27T03:49:21.374Z,17.80
2022-08-27T03:51:52.735Z,17.80
2022-08-27T03:54:20.075Z,17.70
2022-08-27T03:56:47.510Z,17.50
2022-08-27T03:59:15.961Z,17.60
2022-08-27T04:01:44.411Z,17.70
2022-08-27T04:04:13.216Z,17.70
2022-08-27T04:06:40.470Z,17.70
2022-08-27T04:09:08.059Z,17.70
2022-08-27T04:11:35.388Z,17.70
2022-08-27T04:14:14.580Z,17.80
2022-08-27T04:16:49.759Z,17.70
2022-08-27T04:19:21.227Z,17.60
2022-08-27T04:21:51.292Z,17.50
2022-08-27T04:24:18.580Z,17.70
2022-08-27T04:26:47.695Z,17.70
2022-08-27T04:29:14.988Z,17.70
2022-08-27T04:31:42.265Z,17.60
2022-08-27T04:34:09.662Z,17.60
2022-08-27T04:36:37.383Z,17.80
2022-08-27T04:39:04.696Z,17.80
2022-08-27T04:41:33.678Z,17.70
2022-08-27T04:44:05.566Z,17.80
2022-08-27T04:46:34.314Z,17.80
2022-08-27T04:49:10.270Z,17.90
2022-08-27T04:51:40.129Z,18.10
2022-08-27T04:54:07.834Z,18.00
2022-08-27T04:56:35.663Z,17.90
2022-08-27T04:59:04.348Z,17.90
2022-08-27T05:01:31.669Z,17.90
2022-08-27T05:03:58.947Z,17.80
2022-08-27T05:06:26.171Z,17.70
2022-08-27T05:08:54.537Z,17.70
2022-08-27T05:11:22.197Z,17.70
2022-08-27T05:13:49.858Z,17.80
2022-08-27T05:16:19.295Z,17.80
2022-08-27T05:18:48.088Z,17.90
2022-08-27T05:21:25.823Z,18.00
2022-08-27T05:23:54.414Z,18.00
2022-08-27T05:26:22.150Z,18.10
2022-08-27T05:28:49.490Z,18.20
2022-08-27T05:31:17.058Z,18.30
2022-08-27T05:33:44.456Z,18.30
2022-08-27T05:36:20.659Z,18.30
2022-08-27T05:38:51.782Z,18.50
2022-08-27T05:41:20.944Z,18.50
2022-08-27T05:43:50.463Z,18.70
2022-08-27T05:46:19.275Z,18.80
2022-08-27T05:48:46.729Z,19.00
2022-08-27T05:51:22.563Z,19.20
2022-08-27T05:53:59.967Z,19.20
2022-08-27T05:56:28.628Z,19.30
2022-08-27T05:59:14.654Z,19.40
2022-08-27T06:01:45.038Z,19.40
2022-08-27T06:04:13.167Z,19.30
2022-08-27T06:06:45.370Z,19.40
2022-08-27T06:09:14.671Z,19.50
2022-08-27T06:11:42.027Z,19.50
2022-08-27T06:14:09.548Z,19.50
2022-08-27T06:16:39.632Z,19.50
2022-08-27T06:19:07.350Z,19.70
2022-08-27T06:21:34.865Z,19.80
2022-08-27T06:24:02.527Z,19.80
2022-08-27T06:26:29.907Z,19.80
2022-08-27T06:28:58.120Z,19.80
2022-08-27T06:31:27.154Z,19.90
2022-08-27T06:33:57.870Z,20.00
2022-08-27T06:36:28.161Z,20.20
2022-08-27T06:38:55.481Z,20.30
2022-08-27T06:41:24.286Z,20.40
2022-08-27T06:43:52.017Z,20.40
2022-08-27T06:46:22.137Z,20.50
2022-08-27T06:48:52.580Z,20.60
2022-08-27T06:51:26.460Z,20.70
2022-08-27T06:53:55.405Z,20.60
2022-08-27T06:56:22.811Z,20.60
2022-08-27T06:58:59.187Z,20.60
2022-08-27T07:01:30.715Z,20.90
2022-08-27T07:03:59.271Z,20.90
2022-08-27T07:06:27.049Z,21.00
2022-08-27T07:08:54.163Z,21.10
2022-08-27T07:11:21.561Z,21.60
2022-08-27T07:13:48.969Z,21.90
2022-08-27T07:16:22.695Z,22.40
2022-08-27T07:18:51.609Z,22.20
2022-08-27T07:21:21.588Z,22.30
2022-08-27T07:23:49.655Z,22.40
2022-08-27T07:26:17.123Z,22.40
2022-08-27T07:28:44.732Z,22.80
2022-08-27T07:31:13.174Z,23.00
2022-08-27T07:33:42.102Z,23.40
2022-08-27T07:36:13.784Z,23.30
2022-08-27T07:38:41.315Z,23.10
2022-08-27T07:41:12.256Z,23.30
2022-08-27T07:43:57.984Z,23.20
2022-08-27T07:46:25.695Z,23.10
2022-08-27T07:48:53.163Z,23.20
2022-08-27T07:51:21.002Z,23.10
2022-08-27T07:53:48.315Z,22.90
2022-08-27T07:56:15.872Z,23.10
2022-08-27T07:58:43.256Z,23.10
2022-08-27T08:01:10.839Z,23.10
2022-08-27T08:03:38.261Z,23.20
2022-08-27T08:06:07.243Z,22.70
2022-08-27T08:08:35.197Z,23.00
2022-08-27T08:11:03.914Z,23.10
2022-08-27T08:13:32.477Z,23.40
2022-08-27T08:15:59.884Z,23.60
2022-08-27T08:18:27.461Z,23.50
2022-08-27T08:21:02.708Z,23.40
2022-08-27T08:23:30.078Z,23.60
2022-08-27T08:25:57.974Z,23.50
2022-08-27T08:28:25.601Z,23.60
2022-08-27T08:30:55.314Z,23.60
2022-08-27T08:33:22.795Z,23.70
2022-08-27T08:35:50.216Z,23.40
2022-08-27T08:38:18.278Z,23.40
2022-08-27T08:40:50.509Z,23.30
2022-08-27T08:43:34.027Z,23.00
2022-08-27T08:46:17.436Z,23.00
2022-08-27T08:48:48.141Z,23.00
2022-08-27T08:51:19.791Z,23.00
2022-08-27T08:53:53.630Z,23.10
2022-08-27T08:56:55.060Z,23.30
2022-08-27T08:59:41.075Z,23.30
2022-08-27T09:02:13.324Z,23.20
2022-08-27T09:04:41.184Z,23.10
2022-08-27T09:07:30.775Z,23.30
2022-08-27T09:10:11.225Z,23.30
2022-08-27T09:12:38.489Z,23.30
2022-08-27T09:15:17.330Z,23.40
2022-08-27T09:17:45.060Z,23.60
2022-08-27T09:20:13.520Z,23.70
2022-08-27T09:23:28.367Z,23.90
2022-08-27T09:25:57.098Z,24.00
2022-08-27T09:28:43.990Z,24.10
2022-08-27T09:31:19.073Z,24.00
2022-08-27T09:33:56.949Z,24.10
2022-08-27T09:36:24.575Z,24.40
2022-08-27T09:38:58.165Z,24.60
2022-08-27T09:41:29.680Z,24.80
2022-08-27T09:44:01.218Z,24.60
2022-08-27T09:46:28.910Z,24.40
2022-08-27T09:48:56.263Z,24.70
2022-08-27T09:51:27.833Z,25.00
2022-08-27T09:53:56.259Z,24.90
2022-08-27T09:56:30.379Z,24.30
2022-08-27T09:59:08.683Z,25.00
2022-08-27T10:01:38.811Z,25.10
2022-08-27T10:04:16.495Z,25.30
2022-08-27T10:06:48.936Z,25.30
2022-08-27T10:09:33.795Z,25.30
2022-08-27T10:12:17.915Z,25.20
2022-08-27T10:14:47.695Z,25.20
2022-08-27T10:17:27.211Z,25.00
2022-08-27T10:20:29.580Z,25.10
2022-08-27T10:23:06.816Z,25.20
2022-08-27T10:26:01.353Z,25.40
2022-08-27T10:28:53.357Z,25.50
2022-08-27T10:31:33.287Z,25.60
2022-08-27T10:34:31.340Z,25.50
2022-08-27T10:37:07.436Z,25.40
2022-08-27T10:39:43.896Z,25.10
2022-08-27T10:42:26.434Z,25.30
2022-08-27T10:45:32.121Z,25.50
2022-08-27T10:48:14.487Z,25.80
2022-08-27T10:51:14.164Z,25.80
2022-08-27T10:53:53.386Z,25.70
2022-08-27T10:56:31.321Z,25.80
2022-08-27T10:59:04.124Z,25.60
2022-08-27T11:01:31.667Z,25.60
2022-08-27T11:04:18.810Z,25.30
2022-08-27T11:07:03.967Z,25.30
2022-08-27T11:09:37.788Z,25.20
2022-08-27T11:12:14.145Z,25.50
2022-08-27T11:15:15.657Z,25.50
2022-08-27T11:18:02.493Z,25.20
2022-08-27T11:20:36.975Z,24.60
2022-08-27T11:23:05.520Z,24.90
2022-08-27T11:25:35.093Z,25.30
2022-08-27T11:28:02.685Z,25.50
2022-08-27T11:30:37.788Z,25.80
2022-08-27T11:33:14.238Z,25.50
2022-08-27T11:36:06.453Z,25.40
2022-08-27T11:38:36.407Z,25.30
2022-08-27T11:41:07.911Z,25.30
2022-08-27T11:43:35.642Z,25.00
2022-08-27T11:46:08.180Z,24.70
2022-08-27T11:48:41.320Z,24.90
2022-08-27T11:51:12.601Z,25.40
2022-08-27T11:53:58.497Z,25.00
2022-08-27T11:56:36.198Z,24.90
2022-08-27T11:59:31.690Z,25.40
2022-08-27T12:02:12.534Z,25.50
2022-08-27T12:04:42.893Z,25.50
2022-08-27T12:07:17.632Z,25.00
2022-08-27T12:09:57.005Z,25.00
2022-08-27T12:12:54.904Z,25.10
2022-08-27T12:15:43.856Z,25.50
2022-08-27T12:18:26.526Z,25.50
2022-08-27T12:21:06.813Z,25.70
2022-08-27T12:24:01.053Z,25.90
2022-08-27T12:26:35.775Z,25.90
2022-08-27T12:29:27.821Z,26.00
2022-08-27T12:32:45.018Z,26.30
2022-08-27T12:35:15.020Z,26.10
2022-08-27T12:37:48.793Z,25.70
2022-08-27T12:40:24.934Z,25.70
2022-08-27T12:43:03.754Z,25.60
2022-08-27T12:45:31.083Z,25.30
2022-08-27T12:47:58.343Z,25.10
2022-08-27T12:50:27.896Z,25.30
2022-08-27T12:53:51.791Z,25.60
2022-08-27T12:56:26.780Z,26.00
2022-08-27T12:59:16.119Z,26.10
2022-08-27T13:02:01.570Z,26.20
2022-08-27T13:04:31.150Z,25.90
2022-08-27T13:06:58.362Z,25.90
2022-08-27T13:09:30.445Z,25.80
2022-08-27T13:11:59.558Z,25.80
2022-08-27T13:14:28.235Z,26.00
2022-08-27T13:16:58.696Z,26.30
2022-08-27T13:19:32.235Z,26.50
2022-08-27T13:22:01.327Z,26.50
2022-08-27T13:24:35.818Z,26.30
2022-08-27T13:27:04.279Z,26.50
2022-08-27T13:29:31.716Z,26.40
2022-08-27T13:31:59.190Z,26.50
2022-08-27T13:34:27.570Z,26.50
2022-08-27T13:37:06.151Z,26.80
2022-08-27T13:39:37.924Z,26.70
2022-08-27T13:42:06.477Z,26.90
2022-08-27T13:44:39.682Z,27.00
2022-08-27T13:47:25.400Z,26.70
2022-08-27T13:50:01.523Z,26.40
2022-08-27T13:52:32.715Z,26.50
2022-08-27T13:55:09.682Z,26.50
2022-08-27T13:57:45.586Z,26.30
2022-08-27T14:00:25.110Z,26.50
2022-08-27T14:02:56.137Z,26.50
2022-08-27T14:05:23.564Z,26.30
2022-08-27T14:07:52.429Z,26.10
2022-08-27T14:10:25.604Z,26.00
2022-08-27T14:13:15.659Z,26.00
2022-08-27T14:15:53.056Z,26.00
2022-08-27T14:18:58.212Z,26.10
2022-08-27T14:21:23.066Z,26.20
2022-08-27T14:23:50.385Z,26.30
2022-08-27T14:26:18.088Z,26.40
2022-08-27T14:28:45.891Z,26.50
2022-08-27T14:31:13.808Z,26.10
2022-08-27T14:33:41.242Z,25.90
2022-08-27T14:36:08.900Z,25.90
2022-08-27T14:38:38.004Z,26.00
2022-08-27T14:41:08.374Z,26.30
2022-08-27T14:43:36.055Z,26.40
2022-08-27T14:46:04.331Z,26.40
2022-08-27T14:48:33.549Z,26.30
2022-08-27T14:51:02.619Z,25.80
2022-08-27T14:53:29.908Z,25.70
2022-08-27T14:55:59.268Z,25.80
2022-08-27T14:58:26.634Z,25.90
2022-08-27T15:00:56.255Z,26.20
2022-08-27T15:03:26.314Z,26.40
2022-08-27T15:05:57.450Z,26.20
2022-08-27T15:08:29.511Z,26.10
2022-08-27T15:10:59.583Z,26.10
2022-08-27T15:13:27.234Z,26.10
2022-08-27T15:15:54.550Z,26.30
2022-08-27T15:18:22.053Z,26.10
2022-08-27T15:20:49.550Z,26.10
2022-08-27T15:23:16.912Z,26.20
2022-08-27T15:25:45.028Z,26.20
2022-08-27T15:28:12.485Z,26.10
2022-08-27T15:30:40.016Z,26.10
2022-08-27T15:33:07.363Z,26.00
2022-08-27T15:35:34.945Z,25.90
2022-08-27T15:38:02.366Z,25.90
2022-08-27T15:40:32.032Z,25.90
2022-08-27T15:43:02.392Z,25.90
2022-08-27T15:45:30.502Z,26.00
2022-08-27T15:47:57.915Z,25.90
2022-08-27T15:50:25.463Z,25.90
2022-08-27T15:52:55.656Z,25.80
2022-08-27T15:55:24.555Z,25.70
2022-08-27T15:57:52.084Z,25.60
2022-08-27T16:00:20.339Z,25.50
2022-08-27T16:02:47.721Z,25.60
2022-08-27T16:05:15.388Z,25.60
2022-08-27T16:07:42.923Z,25.60
2022-08-27T16:10:10.293Z,25.50
2022-08-27T16:12:38.152Z,25.50
2022-08-27T16:15:06.128Z,25.40
2022-08-27T16:17:33.501Z,25.30
2022-08-27T16:20:00.901Z,25.30
2022-08-27T16:22:28.660Z,25.50
2022-08-27T16:24:55.904Z,25.40
2022-08-27T16:27:23.484Z,25.40
2022-08-27T16:29:51.148Z,25.30
2022-08-27T16:32:19.107Z,25.20
2022-08-27T16:34:55.533Z,25.10
2022-08-27T16:37:26.121Z,25.10
2022-08-27T16:39:53.704Z,25.00
2022-08-27T16:42:21.257Z,25.00
2022-08-27T16:44:48.560Z,24.90
2022-08-27T16:47:15.816Z,24.80
2022-08-27T16:50:01.626Z,24.90
2022-08-27T16:52:29.117Z,24.70
2022-08-27T16:54:57.062Z,24.60
2022-08-27T16:57:24.569Z,24.60
2022-08-27T16:59:51.921Z,24.60
2022-08-27T17:02:30.226Z,24.50
2022-08-27T17:05:12.330Z,24.50
2022-08-27T17:07:48.995Z,24.40
2022-08-27T17:10:19.507Z,24.40
2022-08-27T17:12:47.273Z,24.40
2022-08-27T17:15:16.311Z,24.30
2022-08-27T17:17:43.651Z,24.20
2022-08-27T17:20:11.286Z,23.90
2022-08-27T17:22:38.550Z,23.90
2022-08-27T17:25:06.977Z,23.80
2022-08-27T17:27:34.371Z,23.80
2022-08-27T17:30:01.649Z,23.60
2022-08-27T17:32:28.980Z,23.60
2022-08-27T17:34:56.285Z,23.30
2022-08-27T17:37:24.044Z,23.10
2022-08-27T17:39:51.564Z,22.90
2022-08-27T17:42:18.635Z,22.70
2022-08-27T17:44:46.013Z,22.60
2022-08-27T17:47:13.341Z,22.70
2022-08-27T17:49:40.995Z,22.60
2022-08-27T17:52:11.102Z,22.40
2022-08-27T17:54:41.029Z,22.20
2022-08-27T17:57:19.024Z,22.10
2022-08-27T17:59:46.411Z,22.00
2022-08-27T18:02:34.953Z,21.90
2022-08-27T18:05:02.547Z,21.80
2022-08-27T18:07:30.047Z,21.90
2022-08-27T18:09:57.154Z,22.00
2022-08-27T18:12:25.626Z,21.70
2022-08-27T18:15:14.680Z,21.60
2022-08-27T18:17:42.590Z,21.50
2022-08-27T18:20:12.866Z,21.50
2022-08-27T18:22:43.114Z,21.30
2022-08-27T18:25:16.883Z,21.10
2022-08-27T18:27:45.289Z,21.00
2022-08-27T18:30:12.807Z,21.00
2022-08-27T18:32:40.524Z,21.00
2022-08-27T18:35:18.121Z,21.00
2022-08-27T18:37:45.526Z,21.00
2022-08-27T18:40:13.595Z,20.90
2022-08-27T18:42:41.437Z,20.90
2022-08-27T18:45:10.017Z,20.90
2022-08-27T18:47:38.296Z,20.80
2022-08-27T18:50:07.206Z,20.80
2022-08-27T18:52:36.163Z,20.70
2022-08-27T18:55:05.578Z,20.60
2022-08-27T18:57:33.132Z,20.30
2022-08-27T19:00:00.350Z,20.30
2022-08-27T19:02:27.725Z,20.40
2022-08-27T19:04:55.363Z,20.40
2022-08-27T19:07:22.960Z,20.40
2022-08-27T19:09:50.061Z,20.30
2022-08-27T19:12:17.847Z,20.50
2022-08-27T19:14:47.839Z,20.50
2022-08-27T19:17:26.630Z,20.50
2022-08-27T19:19:53.960Z,20.20
2022-08-27T19:22:21.826Z,20.30
2022-08-27T19:24:49.746Z,20.30
2022-08-27T19:27:24.811Z,20.30
2022-08-27T19:29:52.733Z,20.10
2022-08-27T19:32:20.229Z,20.10
2022-08-27T19:34:47.744Z,20.00
2022-08-27T19:37:23.589Z,20.00
2022-08-27T19:39:51.034Z,20.00
2022-08-27T19:42:18.391Z,19.80
2022-08-27T19:44:45.918Z,19.80
2022-08-27T19:47:14.328Z,19.90
2022-08-27T19:49:42.152Z,19.80
2022-08-27T19:52:09.437Z,19.70
2022-08-27T19:54:47.131Z,19.80
2022-08-27T19:57:24.017Z,19.90
2022-08-27T19:59:51.586Z,19.90
2022-08-27T20:02:18.949Z,19.80
2022-08-27T20:05:07.327Z,19.80
2022-08-27T20:07:35.125Z,19.70
2022-08-27T20:10:08.299Z,19.80
2022-08-27T20:12:36.966Z,19.80
2022-08-27T20:15:06.608Z,19.70
2022-08-27T20:17:35.325Z,19.70
2022-08-27T20:20:02.967Z,19.70
2022-08-27T20:22:30.575Z,19.50
2022-08-27T20:24:57.839Z,19.40
2022-08-27T20:27:25.114Z,19.50
2022-08-27T20:29:54.982Z,19.50
2022-08-27T20:32:25.722Z,19.40
2022-08-27T20:34:56.686Z,19.40
2022-08-27T20:37:24.296Z,19.30
2022-08-27T20:39:52.666Z,19.30
2022-08-27T20:42:20.252Z,19.30
2022-08-27T20:44:47.984Z,19.20
2022-08-27T20:47:15.514Z,19.30
2022-08-27T20:49:44.725Z,19.40
2022-08-27T20:52:13.159Z,19.40
2022-08-27T20:54:40.722Z,19.40
2022-08-27T20:57:08.940Z,19.40
2022-08-27T20:59:54.890Z,19.50
2022-08-27T21:02:25.089Z,19.50
2022-08-27T21:04:52.845Z,19.30
2022-08-27T21:07:20.263Z,19.10
2022-08-27T21:09:55.908Z,19.00
2022-08-27T21:12:25.978Z,19.00
2022-08-27T21:14:56.041Z,19.00
2022-08-27T21:17:27.459Z,19.10
2022-08-27T21:19:55.003Z,19.10
2022-08-27T21:22:22.473Z,19.10
2022-08-27T21:24:50.031Z,19.30
2022-08-27T21:27:17.485Z,19.40
2022-08-27T21:29:47.568Z,19.40
2022-08-27T21:32:14.903Z,19.30
2022-08-27T21:34:42.163Z,19.10
2022-08-27T21:37:11.182Z,19.10
2022-08-27T21:39:39.073Z,19.20
2022-08-27T21:42:06.730Z,19.10
2022-08-27T21:44:34.502Z,19.10
2022-08-27T21:47:02.030Z,19.20
2022-08-27T21:49:32.465Z,19.30
2022-08-27T21:52:01.059Z,19.40
2022-08-27T21:54:28.555Z,19.50
2022-08-27T21:56:57.184Z,19.50
2022-08-27T21:59:24.668Z,19.40
2022-08-27T22:02:00.215Z,19.30
2022-08-27T22:04:30.829Z,19.40
2022-08-27T22:06:59.393Z,19.20
2022-08-27T22:09:27.390Z,18.90
2022-08-27T22:11:54.764Z,18.90
2022-08-27T22:14:22.027Z,18.90
2022-08-27T22:16:50.270Z,19.00
2022-08-27T22:19:17.827Z,19.00
2022-08-27T22:21:45.182Z,19.10
2022-08-27T22:24:12.552Z,19.20
2022-08-27T22:26:39.773Z,19.20
2022-08-27T22:29:08.319Z,19.30
2022-08-27T22:31:35.978Z,19.20
2022-08-27T22:34:03.400Z,19.10
2022-08-27T22:36:30.890Z,19.00
2022-08-27T22:39:03.430Z,18.90
2022-08-27T22:41:32.440Z,18.80
2022-08-27T22:44:00.364Z,18.70
2022-08-27T22:46:27.547Z,18.90
2022-08-27T22:48:54.744Z,19.00
2022-08-27T22:51:21.870Z,19.00
2022-08-27T22:53:49.199Z,19.10
2022-08-27T22:56:16.637Z,19.00
2022-08-27T22:58:46.110Z,18.90
2022-08-27T23:01:18.157Z,18.90
2022-08-27T23:03:45.304Z,18.90
2022-08-27T23:06:12.671Z,18.70
2022-08-27T23:08:40.235Z,18.80
2022-08-27T23:11:07.354Z,18.80
2022-08-27T23:13:34.559Z,18.70
2022-08-27T23:16:03.053Z,18.60
2022-08-27T23:18:30.416Z,18.70
2022-08-27T23:20:57.538Z,18.70
2022-08-27T23:23:27.654Z,18.60
2022-08-27T23:26:16.524Z,18.60
2022-08-27T23:28:44.299Z,18.80
2022-08-27T23:31:11.910Z,18.70
2022-08-27T23:33:39.233Z,18.60
2022-08-27T23:36:07.144Z,18.80
2022-08-27T23:38:34.571Z,18.80
2022-08-27T23:41:01.815Z,18.90
2022-08-27T23:43:30.172Z,18.90
2022-08-27T23:45:57.566Z,18.80
2022-08-27T23:48:24.878Z,18.80
2022-08-27T23:50:52.391Z,18.90
2022-08-27T23:53:19.559Z,18.90
2022-08-27T23:55:46.714Z,18.90
2022-08-27T23:58:14.075Z,19.10
